Siler City, North Carolina
Current Conditions -  °F | °C
As of 10:35 AM on Saturday 25 Oct 2014 (Local Time) from K5W8 Reporting Station
Clear Clear  
Wind Chill: 59°   Ceiling: Unl
Heat Index: 59°   Visibility: 10mi
Dew Point: 43°   Wind: 5mph
Humidity: 55%   Direction: 360°N
Pressure: 30.04"   Gusts: NA
Location:  35.72°N, 79.46°W
Report Text: K5W8 251435Z AUTO 36004KT 10SM CLR 15/06 A3004 RMK AO2 T01500061
Loading
Personal Weather Stations






























Interactive Weather Map
Tropical Storm Tracking
New forecast layout! Learn more

10-Day Weather Forecast

Advertisements
Track Severe Weather on mobile